createdAt,value
2022-12-01T00:01:41.637Z,53.57
2022-12-01T00:04:10.063Z,66.03
2022-12-01T00:06:38.389Z,54.83
2022-12-01T00:09:25.598Z,59.13
2022-12-01T00:11:53.718Z,66.67
2022-12-01T00:14:21.878Z,57.47
2022-12-01T00:16:52.645Z,52.80
2022-12-01T00:19:21.022Z,68.37
2022-12-01T00:21:49.439Z,62.10
2022-12-01T00:24:19.062Z,56.20
2022-12-01T00:26:47.223Z,70.87
2022-12-01T00:29:21.277Z,68.37
2022-12-01T00:31:49.453Z,65.07
2022-12-01T00:34:23.608Z,64.53
2022-12-01T00:36:51.794Z,67.37
2022-12-01T00:39:24.406Z,65.07
2022-12-01T00:41:52.857Z,62.70
2022-12-01T00:44:23.473Z,72.10
2022-12-01T00:46:51.776Z,61.77
2022-12-01T00:49:22.327Z,71.83
2022-12-01T00:51:50.719Z,74.87
2022-12-01T00:54:20.420Z,66.63
2022-12-01T00:56:48.643Z,63.43
2022-12-01T00:59:17.015Z,71.63
2022-12-01T01:01:46.933Z,66.83
2022-12-01T01:04:15.203Z,73.17
2022-12-01T01:06:44.103Z,66.60
2022-12-01T01:09:12.684Z,74.33
2022-12-01T01:11:46.374Z,76.23
2022-12-01T01:14:16.698Z,67.83
2022-12-01T01:16:45.104Z,72.70
2022-12-01T01:19:13.499Z,74.03
2022-12-01T01:21:41.815Z,63.00
2022-12-01T01:24:11.478Z,58.37
2022-12-01T01:26:41.230Z,65.17
2022-12-01T01:29:10.192Z,68.73
2022-12-01T01:31:41.913Z,62.67
2022-12-01T01:34:10.233Z,70.40
2022-12-01T01:36:38.403Z,80.03
2022-12-01T01:39:06.732Z,66.97
2022-12-01T01:41:35.066Z,64.60
2022-12-01T01:44:21.105Z,65.50
2022-12-01T01:46:49.318Z,70.43
2022-12-01T01:49:20.338Z,68.10
2022-12-01T01:51:50.477Z,66.47
2022-12-01T01:54:20.675Z,72.27
2022-12-01T01:56:49.144Z,66.23
2022-12-01T01:59:21.202Z,67.53
2022-12-01T02:01:51.873Z,69.30
2022-12-01T02:04:23.173Z,80.20
2022-12-01T02:06:51.369Z,73.10
2022-12-01T02:09:22.127Z,81.17
2022-12-01T02:11:59.714Z,77.27
2022-12-01T02:14:52.256Z,72.43
2022-12-01T02:17:26.436Z,77.70
2022-12-01T02:20:12.666Z,76.03
2022-12-01T02:22:45.026Z,71.03
2022-12-01T02:25:27.339Z,67.97
2022-12-01T02:28:14.221Z,71.57
2022-12-01T02:30:48.983Z,68.03
2022-12-01T02:33:23.868Z,79.87
2022-12-01T02:35:57.024Z,67.93
2022-12-01T02:38:29.790Z,69.77
2022-12-01T02:41:00.407Z,73.97
2022-12-01T02:43:33.390Z,65.17
2022-12-01T02:46:06.083Z,77.00
2022-12-01T02:48:35.347Z,82.93
2022-12-01T02:51:06.278Z,65.70
2022-12-01T02:53:35.938Z,71.30
2022-12-01T02:56:07.575Z,70.23
2022-12-01T02:58:35.789Z,71.80
2022-12-01T03:01:12.431Z,62.57
2022-12-01T03:03:53.543Z,73.07
2022-12-01T03:06:25.966Z,73.97
2022-12-01T03:08:58.649Z,76.17
2022-12-01T03:11:29.976Z,76.00
2022-12-01T03:14:07.860Z,68.00
2022-12-01T03:16:40.309Z,61.20
2022-12-01T03:19:09.507Z,69.87
2022-12-01T03:21:40.740Z,61.07
2022-12-01T03:24:16.513Z,68.73
2022-12-01T03:26:46.087Z,71.10
2022-12-01T03:29:16.276Z,76.13
2022-12-01T03:31:49.179Z,64.60
2022-12-01T03:34:24.103Z,89.13
2022-12-01T03:36:55.390Z,71.17
2022-12-01T03:39:25.196Z,74.27
2022-12-01T03:41:54.750Z,79.90
2022-12-01T03:44:27.105Z,67.23
2022-12-01T03:46:58.204Z,64.73
2022-12-01T03:49:26.956Z,67.70
2022-12-01T03:52:00.286Z,70.43
2022-12-01T03:54:35.070Z,74.73
2022-12-01T03:57:05.481Z,71.93
2022-12-01T03:59:35.690Z,74.13
2022-12-01T04:02:06.447Z,77.13
2022-12-01T04:04:37.780Z,76.60
2022-12-01T04:07:05.968Z,83.57
2022-12-01T04:09:34.340Z,78.17
2022-12-01T04:12:20.239Z,75.93
2022-12-01T04:14:50.020Z,81.00
2022-12-01T04:17:19.747Z,74.87
2022-12-01T04:19:48.306Z,83.87
2022-12-01T04:22:16.607Z,76.50
2022-12-01T04:24:44.793Z,85.13
2022-12-01T04:27:13.058Z,75.40
2022-12-01T04:29:44.104Z,75.47
2022-12-01T04:32:13.578Z,74.00
2022-12-01T04:34:44.907Z,77.23
2022-12-01T04:37:13.732Z,76.67
2022-12-01T04:39:43.255Z,77.60
2022-12-01T04:42:14.164Z,81.83
2022-12-01T04:44:42.580Z,80.93
2022-12-01T04:47:14.081Z,89.03
2022-12-01T04:49:45.519Z,83.40
2022-12-01T04:52:13.839Z,87.67
2022-12-01T04:54:42.081Z,83.40
2022-12-01T04:57:10.244Z,74.17
2022-12-01T04:59:49.592Z,77.40
2022-12-01T05:02:18.183Z,84.23
2022-12-01T05:04:50.840Z,85.60
2022-12-01T05:07:19.893Z,81.33
2022-12-01T05:10:19.101Z,72.50
2022-12-01T05:12:47.553Z,86.50
2022-12-01T05:15:15.822Z,81.57
2022-12-01T05:17:46.100Z,74.00
2022-12-01T05:20:40.328Z,78.43
2022-12-01T05:23:15.265Z,79.97
2022-12-01T05:25:50.515Z,78.37
2022-12-01T05:28:23.329Z,87.97
2022-12-01T05:30:52.718Z,77.87
2022-12-01T05:33:21.094Z,90.47
2022-12-01T05:35:56.296Z,83.60
2022-12-01T05:38:25.835Z,78.07
2022-12-01T05:40:56.106Z,91.83
2022-12-01T05:43:29.576Z,82.83
2022-12-01T05:46:03.639Z,80.83
2022-12-01T05:48:35.226Z,84.17
2022-12-01T05:51:18.386Z,91.97
2022-12-01T05:53:56.143Z,95.97
2022-12-01T05:56:30.578Z,81.90
2022-12-01T05:58:59.339Z,89.97
2022-12-01T06:01:30.000Z,90.87
2022-12-01T06:04:06.604Z,86.83
2022-12-01T06:06:38.315Z,96.47
2022-12-01T06:09:06.675Z,82.90
2022-12-01T06:11:38.512Z,83.13
2022-12-01T06:14:07.100Z,91.60
2022-12-01T06:16:37.969Z,104.13
2022-12-01T06:19:08.457Z,78.43
2022-12-01T06:21:45.748Z,87.87
2022-12-01T06:24:14.794Z,88.17
2022-12-01T06:26:43.329Z,102.63
2022-12-01T06:29:16.936Z,84.73
2022-12-01T06:31:45.363Z,90.13
2022-12-01T06:34:13.743Z,97.43
2022-12-01T06:36:43.392Z,86.30
2022-12-01T06:39:12.024Z,92.50
2022-12-01T06:41:43.442Z,94.77
2022-12-01T06:44:11.803Z,95.80
2022-12-01T06:46:40.116Z,81.97
2022-12-01T06:49:15.369Z,94.83
2022-12-01T06:51:45.501Z,92.43
2022-12-01T06:54:17.967Z,85.83
2022-12-01T06:56:51.356Z,89.17
2022-12-01T06:59:22.915Z,78.93
2022-12-01T07:01:51.720Z,87.00
2022-12-01T07:04:20.206Z,96.63
2022-12-01T07:06:55.344Z,81.43
2022-12-01T07:09:26.684Z,92.40
2022-12-01T07:11:54.895Z,95.67
2022-12-01T07:14:35.056Z,96.20
2022-12-01T07:17:03.458Z,91.03
2022-12-01T07:19:34.867Z,73.93
2022-12-01T07:22:04.999Z,82.80
2022-12-01T07:24:43.359Z,81.70
2022-12-01T07:27:14.496Z,86.77
2022-12-01T07:29:45.879Z,88.53
2022-12-01T07:32:16.751Z,77.07
2022-12-01T07:34:45.014Z,100.73
2022-12-01T07:37:16.049Z,103.80
2022-12-01T07:39:47.513Z,89.37
2022-12-01T07:42:15.930Z,81.80
2022-12-01T07:44:44.290Z,94.13
2022-12-01T07:47:18.158Z,94.20
2022-12-01T07:49:48.090Z,80.17
2022-12-01T07:52:21.292Z,89.60
2022-12-01T07:54:52.786Z,86.70
2022-12-01T07:57:21.038Z,91.57
2022-12-01T07:59:50.405Z,93.20
2022-12-01T08:02:18.802Z,97.10
2022-12-01T08:04:49.473Z,93.23
2022-12-01T08:07:19.105Z,99.53
2022-12-01T08:09:54.962Z,101.60
2022-12-01T08:12:23.093Z,110.47
2022-12-01T08:14:51.287Z,120.83
2022-12-01T08:17:19.427Z,101.50
2022-12-01T08:19:48.080Z,103.03
2022-12-01T08:22:20.970Z,108.87
2022-12-01T08:24:51.777Z,102.43
2022-12-01T08:27:19.896Z,103.13
2022-12-01T08:29:48.368Z,91.77
2022-12-01T08:32:20.328Z,100.50
2022-12-01T08:34:53.317Z,98.27
2022-12-01T08:37:26.037Z,105.20
2022-12-01T08:39:55.652Z,109.40
2022-12-01T08:42:27.561Z,107.80
2022-12-01T08:44:59.407Z,107.70
2022-12-01T08:47:29.245Z,101.43
2022-12-01T08:49:57.447Z,102.80
2022-12-01T08:52:34.553Z,108.60
2022-12-01T08:55:12.264Z,115.37
2022-12-01T08:57:40.735Z,96.40
2022-12-01T09:00:15.708Z,96.73
2022-12-01T09:02:45.487Z,102.77
2022-12-01T09:05:14.186Z,104.63
2022-12-01T09:08:08.256Z,92.00
2022-12-01T09:10:36.883Z,93.20
2022-12-01T09:13:08.400Z,107.70
2022-12-01T09:15:36.687Z,96.80
2022-12-01T09:18:04.981Z,98.27
2022-12-01T09:20:33.859Z,90.80
2022-12-01T09:25:45.975Z,80.67
2022-12-01T09:28:14.507Z,95.47
2022-12-01T09:30:45.310Z,87.73
2022-12-01T09:33:15.072Z,80.43
2022-12-01T09:35:46.153Z,72.57
2022-12-01T09:38:21.451Z,64.00
2022-12-01T09:40:49.782Z,72.27
2022-12-01T09:43:19.652Z,76.47
2022-12-01T09:46:04.217Z,61.27
2022-12-01T09:48:42.668Z,61.07
2022-12-01T09:51:14.144Z,57.67
2022-12-01T09:53:44.364Z,60.13
2022-12-01T09:56:19.997Z,59.57
2022-12-01T09:58:48.846Z,52.73
2022-12-01T10:01:25.821Z,55.43
2022-12-01T10:03:59.485Z,50.80
2022-12-01T10:06:36.013Z,54.03
2022-12-01T10:09:11.701Z,47.27
2022-12-01T10:11:46.333Z,25.63
2022-12-01T10:14:19.979Z,40.37
2022-12-01T10:17:05.767Z,51.07
2022-12-01T10:19:39.915Z,52.67
2022-12-01T10:23:00.341Z,52.93
2022-12-01T10:25:38.313Z,52.73
2022-12-01T10:28:13.943Z,52.17
2022-12-01T10:30:57.226Z,48.53
2022-12-01T10:33:38.973Z,54.07
2022-12-01T10:36:08.019Z,48.63
2022-12-01T10:38:48.838Z,46.53
2022-12-01T10:41:21.414Z,46.80
2022-12-01T10:43:54.325Z,51.67
2022-12-01T10:46:25.181Z,48.10
2022-12-01T10:48:54.957Z,47.53
2022-12-01T10:51:24.328Z,44.00
2022-12-01T10:53:59.792Z,48.73
2022-12-01T10:56:42.492Z,46.10
2022-12-01T10:59:31.982Z,47.30
2022-12-01T11:02:00.650Z,48.40
2022-12-01T11:04:45.405Z,48.97
2022-12-01T11:07:18.817Z,51.40
2022-12-01T11:09:52.924Z,43.93
2022-12-01T11:12:25.235Z,41.73
2022-12-01T11:14:55.635Z,41.53
2022-12-01T11:17:30.571Z,36.43
2022-12-01T11:19:59.009Z,43.40
2022-12-01T11:22:34.415Z,39.03
2022-12-01T11:25:04.913Z,35.87
2022-12-01T11:27:57.596Z,37.30
2022-12-01T11:30:34.505Z,40.33
2022-12-01T11:33:13.828Z,37.47
2022-12-01T11:35:43.857Z,36.70
2022-12-01T11:38:30.742Z,42.13
2022-12-01T11:41:12.082Z,43.90
2022-12-01T11:44:02.770Z,39.63
2022-12-01T11:46:55.834Z,38.13
2022-12-01T11:49:45.521Z,38.43
2022-12-01T11:52:21.566Z,33.67
2022-12-01T11:54:57.374Z,33.03
2022-12-01T11:57:34.074Z,33.77
2022-12-01T12:00:35.882Z,34.07
2022-12-01T12:03:33.763Z,35.73
2022-12-01T12:06:43.970Z,38.30
2022-12-01T12:09:45.099Z,33.33
2022-12-01T12:12:39.208Z,31.43
2022-12-01T12:15:21.062Z,33.30
2022-12-01T12:18:21.478Z,29.33
2022-12-01T12:21:09.450Z,28.70
2022-12-01T12:24:04.015Z,30.20
2022-12-01T12:26:50.618Z,36.27
2022-12-01T12:29:52.390Z,27.23
2022-12-01T12:32:37.559Z,29.33
2022-12-01T12:35:25.187Z,32.40
2022-12-01T12:38:10.928Z,25.97
2022-12-01T12:40:51.554Z,28.90
2022-12-01T12:43:40.545Z,28.77
2022-12-01T12:46:17.760Z,29.47
2022-12-01T12:49:20.199Z,24.63
2022-12-01T12:51:54.235Z,21.47
2022-12-01T12:55:05.870Z,24.87
2022-12-01T13:00:55.509Z,26.43
2022-12-01T13:03:34.354Z,29.27
2022-12-01T13:06:28.607Z,22.93
2022-12-01T13:09:15.116Z,25.13
2022-12-01T13:12:17.675Z,25.93
2022-12-01T13:15:27.053Z,25.00
2022-12-01T13:21:25.517Z,25.07
2022-12-01T13:24:25.659Z,25.67
2022-12-01T13:31:13.722Z,21.60
2022-12-01T13:37:54.209Z,24.17
2022-12-01T13:41:07.484Z,24.80
2022-12-01T13:44:53.523Z,18.63
2022-12-01T13:47:51.385Z,16.57
2022-12-01T13:51:16.669Z,18.97
2022-12-01T13:54:51.007Z,17.87
2022-12-01T14:04:19.085Z,16.60
2022-12-01T14:07:51.679Z,14.53
2022-12-01T14:11:28.482Z,15.87
2022-12-01T14:18:00.385Z,14.93
2022-12-01T14:21:35.870Z,15.23
2022-12-01T14:25:00.848Z,19.43
2022-12-01T14:31:49.495Z,15.83
2022-12-01T14:35:15.092Z,22.97
2022-12-01T14:38:20.561Z,15.47
2022-12-01T14:41:27.028Z,17.07
2022-12-01T14:47:26.577Z,16.27
2022-12-01T14:50:18.230Z,18.03
2022-12-01T14:53:06.650Z,17.10
2022-12-01T14:55:51.534Z,16.47
2022-12-01T14:58:30.937Z,13.40
2022-12-01T15:01:07.824Z,15.17
2022-12-01T15:03:46.861Z,13.53
2022-12-01T15:06:20.018Z,14.40
2022-12-01T15:09:10.636Z,16.67
2022-12-01T15:11:50.253Z,13.87
2022-12-01T15:14:40.347Z,13.60
2022-12-01T15:17:43.686Z,17.93
2022-12-01T15:20:34.928Z,15.73
2022-12-01T15:23:03.733Z,15.07
2022-12-01T15:25:37.170Z,15.40
2022-12-01T15:28:14.401Z,15.00
2022-12-01T15:31:16.705Z,17.87
2022-12-01T15:33:51.013Z,16.30
2022-12-01T15:36:29.957Z,15.93
2022-12-01T15:39:07.094Z,13.70
2022-12-01T15:41:39.125Z,14.43
2022-12-01T15:44:17.088Z,13.67
2022-12-01T15:46:52.042Z,14.13
2022-12-01T15:49:33.095Z,12.73
2022-12-01T15:52:27.620Z,15.00
2022-12-01T15:54:57.682Z,14.37
2022-12-01T15:57:27.031Z,16.40
2022-12-01T16:00:03.796Z,16.63
2022-12-01T16:02:56.385Z,14.17
2022-12-01T16:05:29.111Z,17.27
2022-12-01T16:08:16.527Z,22.30
2022-12-01T16:10:45.318Z,14.43
2022-12-01T16:13:39.601Z,17.30
2022-12-01T16:16:39.618Z,22.90
2022-12-01T16:19:25.803Z,20.10
2022-12-01T16:22:04.759Z,17.20
2022-12-01T16:24:35.258Z,20.37
2022-12-01T16:27:05.581Z,20.00
2022-12-01T16:29:37.666Z,19.40
2022-12-01T16:32:21.603Z,19.57
2022-12-01T16:34:53.981Z,23.27
2022-12-01T16:37:27.763Z,19.70
2022-12-01T16:39:56.155Z,25.10
2022-12-01T16:42:24.514Z,18.63
2022-12-01T16:44:53.202Z,20.20
2022-12-01T16:47:23.422Z,24.97
2022-12-01T16:49:51.861Z,22.07
2022-12-01T16:55:22.313Z,20.70
2022-12-01T16:57:50.734Z,23.17
2022-12-01T17:00:19.613Z,21.73
2022-12-01T17:02:47.976Z,19.47
2022-12-01T17:05:16.587Z,18.20
2022-12-01T17:07:45.080Z,17.10
2022-12-01T17:10:16.714Z,20.00
2022-12-01T17:12:49.174Z,20.90
2022-12-01T17:15:18.025Z,20.80
2022-12-01T17:17:49.655Z,18.90
2022-12-01T17:20:18.398Z,21.43
2022-12-01T17:22:46.899Z,17.53
2022-12-01T17:25:17.759Z,20.33
2022-12-01T17:27:46.327Z,18.70
2022-12-01T17:30:15.218Z,21.60
2022-12-01T17:32:46.662Z,19.30
2022-12-01T17:35:15.057Z,20.40
2022-12-01T17:37:54.802Z,20.70
2022-12-01T17:40:26.218Z,21.90
2022-12-01T17:42:54.515Z,19.57
2022-12-01T17:45:23.110Z,20.33
2022-12-01T17:47:53.668Z,18.43
2022-12-01T17:50:22.038Z,26.43
2022-12-01T17:52:50.340Z,24.67
2022-12-01T17:55:19.618Z,29.37
2022-12-01T17:58:05.969Z,23.77
2022-12-01T18:00:34.589Z,25.73
2022-12-01T18:03:18.200Z,29.93
2022-12-01T18:06:08.245Z,27.90
2022-12-01T18:08:39.900Z,33.50
2022-12-01T18:11:15.688Z,32.33
2022-12-01T18:13:46.539Z,28.17
2022-12-01T18:16:15.962Z,29.17
2022-12-01T18:18:49.247Z,28.70
2022-12-01T18:21:21.899Z,28.90
2022-12-01T18:23:54.139Z,27.40
2022-12-01T18:26:22.629Z,25.87
2022-12-01T18:29:06.326Z,29.33
2022-12-01T18:31:36.437Z,31.17
2022-12-01T18:34:07.251Z,26.03
2022-12-01T18:36:49.743Z,31.97
2022-12-01T18:39:28.587Z,33.57
2022-12-01T18:42:06.718Z,25.33
2022-12-01T18:44:50.551Z,28.73
2022-12-01T18:47:18.907Z,29.87
2022-12-01T18:49:47.164Z,29.80
2022-12-01T18:52:15.423Z,29.43
2022-12-01T18:54:43.943Z,28.20
2022-12-01T18:57:12.165Z,26.80
2022-12-01T18:59:50.786Z,31.27
2022-12-01T19:02:27.898Z,25.37
2022-12-01T19:04:56.296Z,30.53
2022-12-01T19:07:29.547Z,31.77
2022-12-01T19:10:01.186Z,27.73
2022-12-01T19:12:31.836Z,32.23
2022-12-01T19:15:03.795Z,33.77
2022-12-01T19:17:32.045Z,32.37
2022-12-01T19:20:00.320Z,29.20
2022-12-01T19:22:28.665Z,21.67
2022-12-01T19:24:57.873Z,21.50
2022-12-01T19:27:26.102Z,26.57
2022-12-01T19:29:54.629Z,18.63
2022-12-01T19:32:24.397Z,21.00
2022-12-01T19:34:55.457Z,23.50
2022-12-01T19:37:26.631Z,20.90
2022-12-01T19:39:54.843Z,24.17
2022-12-01T19:42:32.411Z,26.33
2022-12-01T19:45:06.757Z,24.43
2022-12-01T19:47:36.661Z,24.73
2022-12-01T19:50:05.368Z,29.70
2022-12-01T19:52:34.076Z,31.53
2022-12-01T19:55:12.611Z,30.27
2022-12-01T19:57:40.927Z,24.93
2022-12-01T20:00:10.527Z,22.50
2022-12-01T20:02:40.161Z,35.37
2022-12-01T20:05:12.348Z,24.80
2022-12-01T20:07:40.597Z,25.27
2022-12-01T20:10:14.394Z,29.37
2022-12-01T20:12:45.555Z,26.63
2022-12-01T20:15:15.771Z,29.43
2022-12-01T20:17:50.426Z,34.83
2022-12-01T20:20:20.782Z,27.70
2022-12-01T20:22:56.516Z,27.77
2022-12-01T20:25:36.554Z,28.50
2022-12-01T20:28:08.192Z,29.77
2022-12-01T20:30:41.069Z,32.40
2022-12-01T20:33:18.102Z,27.13
2022-12-01T20:35:46.280Z,31.33
2022-12-01T20:38:25.761Z,29.33
2022-12-01T20:41:03.256Z,30.47
2022-12-01T20:43:49.762Z,27.10
2022-12-01T20:46:23.985Z,30.33
2022-12-01T20:48:55.193Z,23.87
2022-12-01T20:51:23.702Z,28.90
2022-12-01T20:54:26.116Z,26.77
2022-12-01T20:56:49.811Z,29.63
2022-12-01T20:59:36.523Z,27.60
2022-12-01T21:02:07.664Z,29.73
2022-12-01T21:04:39.060Z,29.50
2022-12-01T21:07:07.632Z,32.77
2022-12-01T21:09:36.022Z,32.90
2022-12-01T21:12:23.881Z,36.60
2022-12-01T21:14:59.063Z,31.47
2022-12-01T21:17:33.123Z,28.20
2022-12-01T21:20:23.989Z,30.93
2022-12-01T21:22:58.097Z,31.40
2022-12-01T21:25:27.670Z,31.03
2022-12-01T21:27:57.453Z,29.13
2022-12-01T21:30:32.073Z,38.73
2022-12-01T21:33:11.299Z,29.03
2022-12-01T21:35:49.256Z,32.97
2022-12-01T21:38:21.744Z,32.07
2022-12-01T21:40:57.613Z,31.60
2022-12-01T21:43:26.299Z,40.40
2022-12-01T21:46:15.507Z,31.37
2022-12-01T21:48:44.125Z,36.00
2022-12-01T21:51:17.955Z,40.67
2022-12-01T21:53:46.352Z,36.53
2022-12-01T21:56:20.581Z,36.77
2022-12-01T21:58:51.964Z,38.97
2022-12-01T22:01:25.781Z,42.50
2022-12-01T22:04:01.669Z,34.00
2022-12-01T22:06:38.809Z,37.17
2022-12-01T22:09:16.058Z,35.10
2022-12-01T22:11:48.784Z,33.60
2022-12-01T22:14:18.289Z,37.07
2022-12-01T22:16:51.605Z,39.17
2022-12-01T22:19:32.503Z,35.90
2022-12-01T22:22:25.202Z,35.37
2022-12-01T22:24:54.121Z,37.90
2022-12-01T22:27:29.224Z,41.70
2022-12-01T22:29:59.250Z,35.27
2022-12-01T22:32:42.086Z,43.73
2022-12-01T22:35:34.177Z,36.57
2022-12-01T22:38:22.683Z,44.57
2022-12-01T22:40:56.821Z,43.23
2022-12-01T22:43:31.924Z,40.77
2022-12-01T22:46:17.191Z,41.37
2022-12-01T22:48:54.020Z,42.67
2022-12-01T22:51:27.581Z,46.90
2022-12-01T22:53:59.833Z,42.07
2022-12-01T22:56:33.507Z,43.23
2022-12-01T22:59:04.474Z,44.30
2022-12-01T23:01:33.986Z,45.27
2022-12-01T23:04:21.089Z,47.20
2022-12-01T23:06:57.961Z,49.13
2022-12-01T23:09:32.843Z,46.87
2022-12-01T23:12:03.143Z,44.03
2022-12-01T23:14:31.412Z,43.03
2022-12-01T23:17:06.580Z,56.40
2022-12-01T23:19:37.594Z,53.40
2022-12-01T23:22:05.787Z,48.77
2022-12-01T23:24:35.534Z,54.97
2022-12-01T23:27:03.887Z,56.07
2022-12-01T23:29:36.862Z,54.77
2022-12-01T23:32:05.552Z,52.03
2022-12-01T23:34:34.805Z,52.40
2022-12-01T23:37:03.254Z,59.93
2022-12-01T23:39:33.066Z,57.90
2022-12-01T23:42:02.745Z,56.30
2022-12-01T23:44:38.688Z,57.63
2022-12-01T23:47:10.342Z,55.67
2022-12-01T23:49:44.665Z,60.10
2022-12-01T23:52:14.216Z,50.23
2022-12-01T23:54:42.489Z,55.87
2022-12-01T23:57:18.691Z,53.60
2022-12-01T23:59:57.565Z,49.73
